Time;durP1;ratioP1;P1;durP2;ratioP2;P2;SDS_P1;SDS_P2;PMS_P1;PMS_P2;Temp;Humidity;BMP_temperature;BMP_pressure;BME280_temperature;BME280_humidity;BME280_pressure;Samples;Min_cycle;Max_cycle;Signal;HPM_P1;HPM_P2
2023/11/18 00:06:10;;;;;;;4.25;2.50;;;;;;;4.04;74.48;100340.00;30972973;28;97910;-64
2023/11/18 00:21:11;;;;;;;4.28;2.80;;;;;;;3.93;74.73;100334.78;30970897;28;110619;-62
2023/11/18 00:36:12;;;;;;;3.60;2.38;;;;;;;3.91;75.11;100337.53;30969933;28;97562;-62
2023/11/18 00:51:12;;;;;;;5.28;2.72;;;;;;;3.90;75.20;100354.31;30968268;28;98814;-62
2023/11/18 01:06:15;;;;;;;4.88;2.50;;;;;;;3.89;75.19;100369.25;30967649;28;97206;-63
2023/11/18 01:21:17;;;;;;;5.35;2.45;;;;;;;3.82;75.56;100383.06;30965533;28;96727;-62
2023/11/18 01:36:18;;;;;;;4.30;2.35;;;;;;;3.75;76.05;100408.25;30964244;28;96607;-62
2023/11/18 01:51:19;;;;;;;3.25;2.45;;;;;;;3.71;76.66;100416.38;30963196;28;96809;-63
2023/11/18 02:06:21;;;;;;;2.75;2.15;;;;;;;3.71;76.66;100431.34;30961426;28;97275;-62
2023/11/18 02:21:23;;;;;;;3.08;1.75;;;;;;;3.68;76.81;100452.69;30960775;28;97446;-62
2023/11/18 02:36:36;;;;;;;1.52;1.00;;;;;;;3.73;76.49;100469.81;30960016;28;96736;-62
2023/11/18 02:51:39;;;;;;;0.80;0.70;;;;;;;3.71;76.68;100489.31;30957821;28;98588;-61
2023/11/18 03:06:41;;;;;;;3.03;1.17;;;;;;;3.76;76.63;100510.91;30957143;28;97512;-62
2023/11/18 03:21:43;;;;;;;4.25;2.38;;;;;;;3.79;76.75;100525.63;30976869;28;97115;-64
2023/11/18 03:36:45;;;;;;;3.47;2.03;;;;;;;3.70;77.24;100548.25;30976553;28;97090;-62
2023/11/18 03:51:45;;;;;;;2.80;1.45;;;;;;;3.49;76.40;100555.97;30975110;28;97302;-62
2023/11/18 04:06:46;;;;;;;4.05;2.17;;;;;;;3.31;77.20;100564.31;30973668;28;96850;-63
2023/11/18 04:21:49;;;;;;;4.95;2.83;;;;;;;3.41;77.13;100584.69;30971786;28;98555;-64
2023/11/18 04:36:50;;;;;;;6.13;3.10;;;;;;;3.42;77.12;100587.22;30968222;28;96990;-63
2023/11/18 04:51:51;;;;;;;6.72;3.92;;;;;;;3.38;77.40;100597.13;30965592;28;97651;-62
2023/11/18 05:06:51;;;;;;;8.57;4.72;;;;;;;3.45;77.61;100599.31;30964835;28;102697;-62
2023/11/18 05:21:51;;;;;;;7.85;4.97;;;;;;;3.47;77.49;100626.38;30964729;28;96740;-63
2023/11/18 05:36:54;;;;;;;7.38;5.15;;;;;;;3.43;77.25;100624.91;30964173;28;97456;-62
2023/11/18 05:51:54;;;;;;;8.57;4.25;;;;;;;3.50;77.82;100647.19;30959536;28;97133;-62
2023/11/18 06:06:56;;;;;;;11.65;9.90;;;;;;;3.49;77.37;100662.19;30958685;28;97326;-62
2023/11/18 06:21:57;;;;;;;10.13;6.05;;;;;;;3.41;77.39;100682.16;30957592;28;97214;-62
2023/11/18 06:36:57;;;;;;;10.77;6.72;;;;;;;3.35;77.16;100689.53;30956388;28;107282;-62
2023/11/18 06:51:57;;;;;;;11.05;6.20;;;;;;;3.27;77.44;100705.03;30968886;28;101498;-62
2023/11/18 07:06:57;;;;;;;11.38;6.85;;;;;;;3.44;77.53;100731.97;30974048;28;110410;-62
2023/11/18 07:21:59;;;;;;;11.95;6.55;;;;;;;3.52;77.52;100737.50;30973341;28;110929;-62
2023/11/18 07:36:59;;;;;;;11.60;6.93;;;;;;;3.81;77.29;100745.09;30971891;28;96917;-62
2023/11/18 07:51:59;;;;;;;10.77;6.85;;;;;;;3.96;76.86;100766.84;30967751;28;97387;-62
2023/11/18 08:07:00;;;;;;;12.10;7.03;;;;;;;4.11;76.47;100772.78;30968965;28;97118;-61
2023/11/18 08:22:01;;;;;;;12.50;7.63;;;;;;;4.28;76.24;100788.19;30969027;28;99808;-65
2023/11/18 08:37:03;;;;;;;11.50;7.50;;;;;;;4.96;75.72;100775.13;30965517;28;97560;-62
2023/11/18 08:52:09;;;;;;;13.33;8.30;;;;;;;5.48;74.82;100816.88;30964668;28;96697;-63
2023/11/18 09:07:10;;;;;;;11.57;7.60;;;;;;;5.19;74.79;100834.03;30963218;28;97096;-62
2023/11/18 09:22:13;;;;;;;12.30;7.70;;;;;;;4.78;74.87;100842.53;30962474;28;97143;-62
2023/11/18 09:37:15;;;;;;;12.93;8.35;;;;;;;4.57;74.99;100866.94;30959469;28;97014;-62
2023/11/18 09:52:20;;;;;;;9.90;6.18;;;;;;;4.56;74.78;100862.63;30956971;28;97095;-62
2023/11/18 10:07:22;;;;;;;11.98;7.25;;;;;;;4.67;74.83;100877.66;30958525;28;96718;-62
2023/11/18 10:22:29;;;;;;;9.32;6.10;;;;;;;4.82;74.67;100880.94;30965729;28;96925;-62
2023/11/18 10:37:30;;;;;;;10.57;6.03;;;;;;;4.93;74.04;100896.81;30978615;28;97058;-62
2023/11/18 10:52:31;;;;;;;9.43;5.03;;;;;;;5.19;73.53;100908.00;30975472;28;97555;-62
2023/11/18 11:07:32;;;;;;;6.87;4.47;;;;;;;6.02;72.97;100913.94;30975363;28;96788;-62
2023/11/18 11:22:41;;;;;;;8.73;4.50;;;;;;;6.89;71.75;100922.78;30973809;28;97425;-62
2023/11/18 11:37:43;;;;;;;9.70;4.93;;;;;;;8.34;69.82;100934.19;30970711;28;97068;-63
2023/11/18 11:52:48;;;;;;;9.30;7.00;;;;;;;14.07;58.53;100941.47;30968824;28;97380;-63
2023/11/18 12:07:49;;;;;;;11.97;7.90;;;;;;;9.99;62.47;100955.34;30970039;28;97082;-64
2023/11/18 12:23:14;;;;;;;12.15;7.82;;;;;;;8.13;63.75;100966.13;30969456;28;97104;-63
2023/11/18 12:38:28;;;;;;;21.07;8.50;;;;;;;7.81;64.55;100961.00;30967035;28;97488;-63
2023/11/18 12:53:28;;;;;;;16.43;8.30;;;;;;;6.99;65.17;100962.63;30964379;28;97029;-64
2023/11/18 13:08:29;;;;;;;16.33;7.38;;;;;;;6.69;65.32;100962.34;30964592;28;96642;-64
2023/11/18 13:23:30;;;;;;;13.23;8.48;;;;;;;6.30;65.64;100967.31;30960456;28;96765;-65
2023/11/18 13:38:30;;;;;;;15.23;9.15;;;;;;;6.21;66.66;100968.88;30960134;28;96722;-62
2023/11/18 13:53:31;;;;;;;15.48;8.65;;;;;;;6.06;67.28;100970.09;30957197;28;96806;-62
2023/11/18 14:08:34;;;;;;;15.30;8.30;;;;;;;6.18;66.81;100962.97;30958119;28;96885;-61
2023/11/18 14:23:34;;;;;;;14.63;8.97;;;;;;;6.29;65.84;100968.25;30959072;28;97211;-62
2023/11/18 14:38:34;;;;;;;13.10;8.40;;;;;;;5.57;66.46;100982.66;30958478;28;98956;-61
2023/11/18 14:53:35;;;;;;;12.80;7.93;;;;;;;5.28;66.96;100993.66;30953140;28;102137;-62
2023/11/18 15:08:35;;;;;;;17.92;9.18;;;;;;;5.11;67.41;100997.56;30962345;28;97093;-62
2023/11/18 15:23:35;;;;;;;17.75;8.82;;;;;;;5.00;67.90;100993.09;30971544;28;96719;-66
2023/11/18 15:38:35;;;;;;;15.68;9.02;;;;;;;4.81;68.25;100979.56;30970600;28;104536;-63
2023/11/18 15:53:36;;;;;;;19.15;9.30;;;;;;;4.65;68.37;100988.63;30967268;28;111518;-62
2023/11/18 16:08:36;;;;;;;18.08;11.48;;;;;;;4.54;68.50;100986.75;30970853;28;96886;-63
2023/11/18 16:23:39;;;;;;;18.05;10.38;;;;;;;4.39;68.76;101004.53;30968973;28;108876;-61
2023/11/18 16:38:41;;;;;;;20.88;10.82;;;;;;;4.14;69.16;100997.53;30967328;28;97105;-62
2023/11/18 16:53:41;;;;;;;24.70;14.18;;;;;;;4.18;69.20;101006.06;30963749;28;97728;-62
2023/11/18 17:08:42;;;;;;;19.67;11.88;;;;;;;4.00;69.59;101006.41;30963906;28;97091;-62
2023/11/18 17:23:43;;;;;;;18.10;10.48;;;;;;;3.78;69.78;101011.50;30962790;28;96812;-62
2023/11/18 17:38:44;;;;;;;18.83;11.15;;;;;;;3.77;70.56;101004.53;30958817;28;96763;-64
2023/11/18 17:53:47;;;;;;;17.85;11.57;;;;;;;3.76;70.85;100989.66;30958941;28;97235;-62
2023/11/18 18:08:47;;;;;;;23.20;14.02;;;;;;;3.81;71.47;100985.75;30957495;28;96884;-64
2023/11/18 18:23:47;;;;;;;23.92;13.52;;;;;;;3.50;71.60;100953.66;30957401;28;100713;-62
2023/11/18 18:38:49;;;;;;;22.05;12.15;;;;;;;3.49;72.69;100965.13;30957751;28;96940;-65
2023/11/18 18:53:49;;;;;;;19.77;12.35;;;;;;;3.49;72.66;100935.31;30976032;28;96667;-62
2023/11/18 19:08:50;;;;;;;23.50;13.73;;;;;;;3.54;72.68;100934.03;30975453;28;97150;-64
2023/11/18 19:23:53;;;;;;;21.55;11.90;;;;;;;3.37;72.93;100937.00;30972806;28;97539;-62
2023/11/18 19:38:53;;;;;;;20.90;11.85;;;;;;;3.32;73.21;100910.97;30970877;28;108752;-62
2023/11/18 19:53:54;;;;;;;27.55;13.93;;;;;;;3.30;73.61;100883.06;30969894;28;108877;-63
2023/11/18 20:08:54;;;;;;;23.73;13.75;;;;;;;3.20;74.41;100877.59;30971381;28;97314;-63
2023/11/18 20:23:54;;;;;;;30.58;17.23;;;;;;;3.08;74.33;100865.28;30969221;28;104985;-62
2023/11/18 20:38:56;;;;;;;22.10;11.82;;;;;;;2.97;74.62;100829.16;30967394;28;107628;-62
2023/11/18 20:53:56;;;;;;;17.90;9.57;;;;;;;2.86;75.22;100822.00;30963802;28;97221;-63
2023/11/18 21:08:57;;;;;;;19.50;11.00;;;;;;;2.70;75.60;100811.66;30963121;28;97132;-64
2023/11/18 21:23:57;;;;;;;18.60;11.25;;;;;;;2.60;75.42;100800.06;30962031;28;96807;-63
2023/11/18 21:38:58;;;;;;;22.50;12.98;;;;;;;2.41;75.99;100800.47;30961977;28;97258;-65
2023/11/18 21:53:58;;;;;;;24.40;12.95;;;;;;;2.27;76.33;100773.31;30962410;28;98176;-64
2023/11/18 22:08:58;;;;;;;20.88;11.90;;;;;;;2.26;76.29;100749.75;30960480;28;106133;-64
2023/11/18 22:23:58;;;;;;;22.65;12.88;;;;;;;2.32;76.16;100736.19;30957764;28;111695;-65
2023/11/18 22:38:59;;;;;;;21.10;12.15;;;;;;;2.36;76.82;100742.91;30958506;28;96718;-61
2023/11/18 22:53:59;;;;;;;22.73;12.00;;;;;;;2.22;76.92;100724.63;30957716;28;97358;-61
2023/11/18 23:08:59;;;;;;;25.02;13.27;;;;;;;2.17;76.84;100683.72;30956687;28;113480;-61
2023/11/18 23:24:01;;;;;;;24.02;11.90;;;;;;;2.04;77.32;100661.81;30955464;28;110718;-61
2023/11/18 23:39:01;;;;;;;27.75;13.90;;;;;;;1.88;77.05;100646.25;30976004;28;97064;-61
2023/11/18 23:54:02;;;;;;;22.98;12.68;;;;;;;1.79;77.88;100642.44;30973810;28;106894;-62
